Latest Weather Observations for Mount Boyce

IDN60901

Issued at 9:01 pm EDT Tuesday 23 October 2018 (issued every 10 minutes, with the page automatically refreshed every 10 minutes)

About weather observations | Map of Sydney area stations | Latest observations for Sydney area | Other Formats
Station Details ID: 063292 Name: MOUNT BOYCE AWS Lat: -33.62 Lon: 150.27 Height: 1080.0 m
Data from the previous 72 hours. | See also: Recent months at Mount Boyce
Date/Time
EDT
Temp
°C
App
Temp
°C
Dew
Point
°C
Rel
Hum
%
Delta-T
°C
Wind Press
QNH
hPa
Press
MSL
hPa
Rain since
9am
mm
Dir  Spd
km/h
Gust
km/h
Spd
kts
Gust
kts
23/09:00pm 19.4 15.0 0.4 28 8.9 W 13 19 7 10 - - 0.0
23/08:30pm 19.8 14.7 0.8 28 9.0 W 17 24 9 13 - - 0.0
23/08:00pm 19.9 15.3 1.4 29 8.9 W 15 20 8 11 - - 0.0
23/07:30pm 20.8 15.3 0.6 26 9.6 W 19 28 10 15 - - 0.0
23/07:00pm 21.6 17.0 1.3 26 9.9 W 15 24 8 13 - - 0.0
23/06:30pm 21.4 16.2 2.2 28 9.5 W 19 35 10 19 - - 0.0
23/06:00pm 23.5 18.1 2.4 25 10.6 W 20 35 11 19 - - 0.0
23/05:30pm 23.9 17.8 2.7 25 10.7 W 24 39 13 21 - - 0.0
23/05:02pm 23.7 16.6 1.4 23 11.0 WSW 28 46 15 25 - - 0.0
23/05:00pm 23.7 17.0 1.4 23 11.0 WSW 26 46 14 25 - - 0.0
23/04:59pm 23.8 17.1 1.4 23 11.1 WSW 26 46 14 25 - - 0.0
23/04:30pm 24.4 18.8 3.7 26 10.7 W 22 33 12 18 - - 0.0
23/04:00pm 24.4 18.3 2.5 24 11.1 W 24 41 13 22 - - 0.0
23/03:30pm 24.5 18.3 2.0 23 11.3 WSW 24 39 13 21 - - 0.0
23/03:00pm 23.8 18.7 4.2 28 10.2 WSW 20 37 11 20 - - 0.0
23/02:30pm 23.9 18.5 6.2 32 9.6 WSW 24 37 13 20 - - 0.0
23/02:00pm 23.5 17.1 5.4 31 9.6 WSW 28 41 15 22 - - 0.0
23/01:30pm 23.0 17.2 4.5 30 9.6 W 24 41 13 22 - - 0.0
23/01:00pm 22.0 15.6 1.1 25 10.2 W 24 35 13 19 - - 0.0
23/12:30pm 22.3 16.2 2.9 28 9.8 W 24 39 13 21 - - 0.0
23/12:00pm 21.4 16.4 4.5 33 8.7 WSW 20 35 11 19 - - 0.0
23/11:30am 21.8 18.9 9.7 46 6.9 WNW 15 24 8 13 - - 0.0
23/11:00am 21.0 17.7 9.6 48 6.4 WNW 17 30 9 16 - - 0.0
23/10:30am 19.7 16.8 9.6 52 5.7 W 15 28 8 15 - - 0.0
23/10:00am 19.3 16.8 9.8 54 5.3 WNW 13 28 7 15 - - 0.0
23/09:30am 18.4 16.7 9.7 57 4.9 WNW 9 17 5 9 - - 0.0
23/09:00am 17.4 16.4 11.0 66 3.6 W 7 13 4 7 - - 0.0
23/08:30am 16.2 15.1 10.7 70 3.1 WNW 7 9 4 5 - - 0.0
23/08:00am 15.0 13.8 10.2 73 2.7 WNW 7 9 4 5 - - 0.0
23/07:30am 14.4 13.1 10.0 75 2.4 NW 7 11 4 6 - - 0.0
23/07:00am 13.7 12.3 9.7 77 2.2 NW 7 11 4 6 - - 0.0
23/06:30am 12.4 11.1 10.1 86 1.3 NW 7 9 4 5 - - 0.0
23/06:00am 11.9 10.6 10.0 88 1.0 WNW 7 11 4 6 - - 0.0
23/05:30am 11.9 10.6 9.8 87 1.1 WNW 7 9 4 5 - - 0.0
23/05:00am 12.1 10.8 10.0 87 1.1 WNW 7 11 4 6 - - 0.0
23/04:30am 12.5 11.6 11.2 92 0.7 WSW 7 9 4 5 - - 0.0
23/04:07am 12.2 11.3 11.4 95 0.4 WSW 7 9 4 5 - - 0.0
23/04:00am 12.3 11.7 11.7 96 0.3 WSW 6 7 3 4 - - 0.0
23/03:50am 12.2 11.4 11.6 96 0.3 SW 7 9 4 5 - - 0.0
23/03:30am 12.2 11.4 11.6 96 0.3 WSW 7 9 4 5 - - 0.0
23/03:16am 12.4 11.6 11.6 95 0.4 W 7 9 4 5 - - 0.0
23/03:07am 12.6 11.7 11.5 93 0.6 W 7 9 4 5 - - 0.0
23/03:00am 12.8 11.9 11.4 91 0.8 WNW 7 9 4 5 - - 0.0
23/02:45am 13.5 11.8 9.9 79 2.0 NW 9 13 5 7 - - 0.0
23/02:30am 13.0 12.4 11.6 91 0.8 WNW 6 9 3 5 - - 0.0
23/02:23am 12.7 11.9 11.8 94 0.5 W 7 9 4 5 - - 0.0
23/02:00am 13.1 12.8 11.5 90 0.9 NW 4 9 2 5 - - 0.0
23/01:47am 13.1 13.0 12.0 93 0.6 WNW 4 7 2 4 - - 0.0
23/01:30am 12.9 13.5 12.0 94 0.5 CALM 0 0 0 0 - - 0.0
23/01:12am 12.9 12.3 11.6 92 0.7 W 6 7 3 4 - - 0.0
23/01:00am 13.1 12.3 11.7 91 0.8 WNW 7 9 4 5 - - 0.0
23/12:30am 14.1 12.1 11.6 85 1.4 NNE 13 17 7 9 - - 0.0
23/12:00am 14.0 12.2 12.0 88 1.1 N 13 17 7 9 - - 0.0
 
Date/Time
EDT
Temp
°C
App
Temp
°C
Dew
Point
°C
Rel
Hum
%
Delta-T
°C
Wind Press
QNH
hPa
Press
MSL
hPa
Rain since
9am
mm
Dir  Spd
km/h
Gust
km/h
Spd
kts
Gust
kts
22/11:40pm 13.6 11.9 12.3 92 0.7 N 13 17 7 9 - - 0.0
22/11:30pm 13.6 12.7 12.7 94 0.5 N 9 17 5 9 - - 0.0
22/11:28pm 13.4 12.5 12.5 94 0.5 NNE 9 15 5 8 - - 0.0
22/11:00pm 13.5 12.6 12.6 94 0.5 NE 9 15 5 8 - - 0.0
22/10:30pm 13.7 12.9 12.8 94 0.5 ENE 9 15 5 8 - - 0.0
22/10:00pm 13.8 12.6 12.7 93 0.6 ENE 11 17 6 9 - - 0.0
22/09:30pm 13.9 13.0 12.6 92 0.7 ENE 9 15 5 8 - - 0.0
22/09:24pm 14.0 13.1 12.6 91 0.8 ENE 9 15 5 8 - - 0.0
22/09:00pm 14.2 13.0 12.8 91 0.8 ENE 11 19 6 10 - - 0.0
22/08:30pm 14.5 13.4 13.0 91 0.9 ENE 11 20 6 11 - - 0.0
22/08:00pm 14.3 13.1 12.7 90 0.9 ENE 11 17 6 9 - - 0.0
22/07:53pm 14.4 13.4 12.4 88 1.1 ENE 9 17 5 9 - - 0.0
22/07:30pm 14.8 13.4 12.1 84 1.5 ENE 11 19 6 10 - - 0.0
22/07:00pm 16.7 15.4 11.4 71 3.0 ENE 9 17 5 9 - - 0.0
22/06:30pm 18.5 16.8 11.3 63 4.1 ENE 11 17 6 9 - - 0.0
22/06:00pm 19.8 18.7 11.8 60 4.7 E 9 13 5 7 - - 0.0
22/05:30pm 20.4 19.3 11.9 58 5.0 ENE 9 15 5 8 - - 0.0
22/05:00pm 21.2 21.4 11.8 55 5.5 E 2 7 1 4 - - 0.0
22/04:30pm 22.3 18.3 2.9 28 9.8 W 13 20 7 11 - - 0.0
22/04:00pm 22.9 19.2 4.4 30 9.6 W 13 20 7 11 - - 0.0
22/03:30pm 22.6 19.8 6.8 36 8.6 WSW 11 20 6 11 - - 0.0
22/03:00pm 21.9 19.5 7.0 38 8.1 WNW 9 20 5 11 - - 0.0
22/02:30pm 20.4 17.1 6.4 40 7.4 SW 13 24 7 13 - - 0.0
22/02:00pm 21.0 18.5 6.5 39 7.7 WNW 9 17 5 9 - - 0.0
22/01:30pm 20.3 18.0 7.3 43 7.0 W 9 19 5 10 - - 0.0
22/01:00pm 19.0 16.3 7.4 47 6.2 SW 11 19 6 10 - - 0.0
22/12:30pm 18.7 16.6 8.4 51 5.6 W 9 19 5 10 - - 0.0
22/12:00pm 17.4 14.8 7.7 53 5.2 W 11 20 6 11 - - 0.0
22/11:30am 16.8 14.3 8.2 57 4.6 W 11 19 6 10 - - 0.0
22/11:00am 16.7 14.8 9.1 61 4.2 WNW 9 17 5 9 - - 0.0
22/10:30am 15.9 14.0 8.9 63 3.8 N 9 17 5 9 - - 0.0
22/10:09am 16.0 14.8 10.3 69 3.2 NNE 7 17 4 9 - - 0.0
22/10:00am 15.0 13.7 9.8 71 2.9 N 7 15 4 8 - - 0.0
22/09:30am 14.4 13.2 10.2 76 2.3 N 7 15 4 8 - - 0.0
22/09:00am 12.1 9.9 9.5 84 1.4 NNE 11 17 6 9 - - 0.2
22/08:30am 11.6 10.1 10.7 94 0.5 NNE 9 15 5 8 - - 0.2
22/08:00am 10.9 9.9 10.4 97 0.3 NNE 6 13 3 7 - - 0.2
22/07:30am 10.6 9.4 10.3 98 0.2 NNE 7 13 4 7 - - 0.2
22/07:23am 10.3 8.6 10.0 98 0.2 N 9 17 5 9 - - 0.2
22/07:00am 10.4 9.7 10.1 98 0.2 NNE 4 11 2 6 - - 0.2
22/06:30am 10.3 9.2 10.0 98 0.2 NE 6 13 3 7 - - 0.2
22/06:00am 10.3 9.2 10.0 98 0.2 NE 6 9 3 5 - - 0.2
22/05:30am 10.2 9.1 9.9 98 0.2 NE 6 15 3 8 - - 0.2
22/05:00am 10.3 9.6 10.0 98 0.2 NE 4 11 2 6 - - 0.2
22/04:30am 10.2 9.5 9.9 98 0.2 NNE 4 9 2 5 - - 0.2
22/04:00am 10.2 9.8 9.9 98 0.2 N 2 7 1 4 - - 0.2
22/03:30am 10.1 9.0 9.8 98 0.2 NNE 6 11 3 6 - - 0.0
22/03:00am 10.2 9.1 9.9 98 0.2 ENE 6 9 3 5 - - 0.0
22/02:30am 10.1 9.3 9.6 97 0.3 NE 4 9 2 5 - - 0.0
22/02:00am 10.1 8.9 9.6 97 0.3 ENE 6 13 3 7 - - 0.0
22/01:30am 9.9 8.5 9.4 97 0.3 ENE 7 11 4 6 - - 0.0
22/01:00am 9.5 7.6 8.9 96 0.3 ENE 9 13 5 7 - - 0.0
22/12:30am 9.5 7.6 8.9 96 0.3 ENE 9 13 5 7 - - 0.0
22/12:00am 9.7 7.5 9.2 97 0.3 ENE 11 19 6 10 - - 0.0
 
Date/Time
EDT
Temp
°C
App
Temp
°C
Dew
Point
°C
Rel
Hum
%
Delta-T
°C
Wind Press
QNH
hPa
Press
MSL
hPa
Rain since
9am
mm
Dir  Spd
km/h
Gust
km/h
Spd
kts
Gust
kts
21/11:30pm 9.7 8.2 9.1 96 0.3 ENE 7 11 4 6 - - 0.0
21/11:00pm 9.7 8.2 9.2 97 0.3 ENE 7 9 4 5 - - 0.0
21/10:30pm 9.7 7.8 8.9 95 0.4 ENE 9 15 5 8 - - 0.0
21/10:00pm 9.7 7.8 9.1 96 0.3 ENE 9 13 5 7 - - 0.0
21/09:30pm 9.9 8.1 9.4 97 0.3 ENE 9 13 5 7 - - 0.0
21/09:00pm 9.9 8.1 9.3 96 0.3 ENE 9 15 5 8 - - 0.0
21/08:30pm 10.0 8.2 9.4 96 0.3 ENE 9 15 5 8 - - 0.0
21/08:00pm 10.3 8.5 9.5 95 0.4 ENE 9 15 5 8 - - 0.0
21/07:30pm 10.5 8.7 9.6 94 0.5 ENE 9 13 5 7 - - 0.0
21/07:00pm 10.7 9.0 9.8 94 0.5 ENE 9 15 5 8 - - 0.0
21/06:30pm 10.9 9.2 10.0 94 0.5 ENE 9 17 5 9 - - 0.0
21/06:00pm 11.4 9.8 10.1 92 0.7 ENE 9 17 5 9 - - 0.0
21/05:30pm 11.9 10.3 10.1 89 1.0 ENE 9 17 5 9 - - 0.0
21/05:00pm 12.0 10.4 10.2 89 1.0 ENE 9 13 5 7 - - 0.0
21/04:30pm 12.6 11.0 10.3 86 1.3 ENE 9 13 5 7 - - 0.0
21/04:00pm 13.0 11.1 10.5 85 1.4 ENE 11 17 6 9 - - 0.0
21/03:30pm 12.8 10.8 10.3 85 1.4 ENE 11 17 6 9 - - 0.0
21/03:00pm 13.5 11.7 10.9 84 1.4 ENE 11 19 6 10 - - 0.0
21/02:30pm 13.3 11.1 10.7 84 1.4 ENE 13 19 7 10 - - 0.0
21/02:00pm 14.0 11.8 10.8 81 1.8 ENE 13 20 7 11 - - 0.0
21/01:30pm 14.6 12.8 11.0 79 2.0 ENE 11 19 6 10 - - 0.0
21/01:00pm 14.7 12.9 10.9 78 2.1 ENE 11 19 6 10 - - 0.0
21/12:30pm 14.2 12.9 11.2 82 1.7 ENE 9 17 5 9 - - 0.0
21/12:00pm 14.3 13.1 11.6 84 1.5 ENE 9 15 5 8 - - 0.0
21/11:30am 14.4 13.0 10.8 79 2.0 ENE 9 20 5 11 - - 0.0
21/11:00am 12.8 11.4 10.9 88 1.1 NE 9 15 5 8 - - 0.0
21/10:30am 12.5 11.5 11.1 91 0.8 ENE 7 13 4 7 - - 0.0
21/10:00am 12.0 11.0 11.1 94 0.5 ENE 7 13 4 7 - - 0.0
21/09:30am 12.0 12.2 10.6 91 0.8 CALM 0 4 0 2 - - 0.0
21/09:26am 11.9 11.7 10.3 90 0.9 SE 2 6 1 3 - - 0.0
21/09:00am 11.2 11.2 9.8 91 0.8 CALM 0 0 0 0 - - 0.2
21/08:30am 10.7 8.9 9.5 92 0.6 W 9 9 5 5 - - 0.2
21/08:19am 11.0 10.2 9.8 92 0.6 W 4 9 2 5 - - 0.2
21/08:00am 10.3 9.1 9.5 95 0.4 W 6 9 3 5 - - 0.2
21/07:30am 10.2 8.8 9.4 95 0.4 WSW 7 9 4 5 - - 0.2
21/07:06am 10.2 10.1 9.4 95 0.4 CALM 0 0 0 0 - - 0.2
21/07:00am 10.2 10.1 9.4 95 0.4 CALM 0 0 0 0 - - 0.2
21/06:59am 10.3 10.2 9.5 95 0.4 CALM 0 0 0 0 - - 0.2
21/06:30am 10.1 9.1 8.9 92 0.6 SSW 4 9 2 5 - - 0.2
21/06:00am 10.6 10.4 9.2 91 0.7 CALM 0 0 0 0 - - 0.2
21/05:30am 10.3 10.1 8.9 91 0.7 CALM 0 6 0 3 - - 0.2
21/05:00am 10.7 9.3 9.5 92 0.6 W 7 9 4 5 - - 0.2
21/04:30am 10.9 9.6 9.3 90 0.8 SW 6 9 3 5 - - 0.2
21/04:00am 11.1 9.9 9.5 90 0.9 SW 6 7 3 4 - - 0.2
21/03:30am 11.0 9.6 9.4 90 0.9 WSW 7 9 4 5 - - 0.2
21/03:00am 11.4 9.7 9.7 89 0.9 W 9 13 5 7 - - 0.2
21/02:30am 11.6 9.4 9.5 87 1.1 W 11 15 6 8 - - 0.2
21/02:00am 12.0 10.6 9.0 82 1.6 W 6 11 3 6 - - 0.2
21/01:30am 12.4 9.8 9.2 81 1.7 W 13 17 7 9 - - 0.2
21/01:00am 12.8 10.6 9.4 80 1.8 W 11 20 6 11 - - 0.2
21/12:30am 12.9 11.3 10.1 83 1.5 W 9 11 5 6 - - 0.2
21/12:00am 13.2 11.3 10.4 83 1.5 W 11 19 6 10 - - 0.2
 
Date/Time
EDT
Temp
°C
App
Temp
°C
Dew
Point
°C
Rel
Hum
%
Delta-T
°C
Wind Press
QNH
hPa
Press
MSL
hPa
Rain since
9am
mm
Dir  Spd
km/h
Gust
km/h
Spd
kts
Gust
kts
20/11:30pm 13.4 12.5 10.6 83 1.5 WNW 6 9 3 5 - - 0.2
20/11:00pm 13.4 12.0 10.9 85 1.4 WSW 9 13 5 7 - - 0.2
20/10:30pm 13.5 11.4 11.0 85 1.4 WSW 13 17 7 9 - - 0.2
20/10:00pm 13.5 12.1 10.9 84 1.4 WSW 9 13 5 7 - - 0.2
20/09:30pm 13.7 12.3 10.9 83 1.6 W 9 15 5 8 - - 0.2

Latest Capital City Observations: Canberra | Sydney | Melbourne | Brisbane | Adelaide | Perth | Hobart | Darwin

Other Formats:

Comma delimited format used in spreadsheet applications
http://www.bom.gov.au/fwo/IDN60901/IDN60901.94743.axf

JavaScript Object Notation format (JSON) in row-major order
http://www.bom.gov.au/fwo/IDN60901/IDN60901.94743.json